sensor_id;sensor_type;location;lat;lon;timestamp;P1;durP1;ratioP1;P2;durP2;ratioP2
13975;SDS011;7062;49.792;9.946;2024-03-22T00:01:48;14.20;;;12.27;;
13975;SDS011;7062;49.792;9.946;2024-03-22T00:04:15;14.03;;;12.47;;
13975;SDS011;7062;49.792;9.946;2024-03-22T00:06:41;13.80;;;12.23;;
13975;SDS011;7062;49.792;9.946;2024-03-22T00:09:08;20.53;;;13.40;;
13975;SDS011;7062;49.792;9.946;2024-03-22T00:11:35;17.97;;;13.30;;
13975;SDS011;7062;49.792;9.946;2024-03-22T00:14:01;14.67;;;12.47;;
13975;SDS011;7062;49.792;9.946;2024-03-22T00:16:27;15.53;;;13.93;;
13975;SDS011;7062;49.792;9.946;2024-03-22T00:18:53;15.30;;;12.90;;
13975;SDS011;7062;49.792;9.946;2024-03-22T00:21:19;17.07;;;13.53;;
13975;SDS011;7062;49.792;9.946;2024-03-22T00:23:45;15.73;;;13.60;;
13975;SDS011;7062;49.792;9.946;2024-03-22T00:26:10;18.03;;;14.27;;
13975;SDS011;7062;49.792;9.946;2024-03-22T00:28:36;16.60;;;14.30;;
13975;SDS011;7062;49.792;9.946;2024-03-22T00:31:02;16.13;;;13.50;;
13975;SDS011;7062;49.792;9.946;2024-03-22T00:33:28;17.13;;;13.53;;
13975;SDS011;7062;49.792;9.946;2024-03-22T00:35:54;16.03;;;14.13;;
13975;SDS011;7062;49.792;9.946;2024-03-22T00:38:19;17.07;;;12.73;;
13975;SDS011;7062;49.792;9.946;2024-03-22T00:40:45;17.67;;;13.60;;
13975;SDS011;7062;49.792;9.946;2024-03-22T00:43:11;17.30;;;12.93;;
13975;SDS011;7062;49.792;9.946;2024-03-22T00:45:36;16.97;;;12.73;;
13975;SDS011;7062;49.792;9.946;2024-03-22T00:48:02;16.30;;;13.00;;
13975;SDS011;7062;49.792;9.946;2024-03-22T00:50:28;16.03;;;12.30;;
13975;SDS011;7062;49.792;9.946;2024-03-22T00:52:54;19.40;;;14.33;;
13975;SDS011;7062;49.792;9.946;2024-03-22T00:55:23;14.57;;;12.83;;
13975;SDS011;7062;49.792;9.946;2024-03-22T00:57:49;17.77;;;14.13;;
13975;SDS011;7062;49.792;9.946;2024-03-22T01:00:15;20.77;;;15.83;;
13975;SDS011;7062;49.792;9.946;2024-03-22T01:02:41;17.80;;;13.27;;
13975;SDS011;7062;49.792;9.946;2024-03-22T01:05:08;17.70;;;14.07;;
13975;SDS011;7062;49.792;9.946;2024-03-22T01:07:33;18.53;;;13.60;;
13975;SDS011;7062;49.792;9.946;2024-03-22T01:10:00;16.53;;;13.90;;
13975;SDS011;7062;49.792;9.946;2024-03-22T01:12:26;17.43;;;14.00;;
13975;SDS011;7062;49.792;9.946;2024-03-22T01:14:51;17.90;;;14.03;;
13975;SDS011;7062;49.792;9.946;2024-03-22T01:17:17;23.77;;;14.67;;
13975;SDS011;7062;49.792;9.946;2024-03-22T01:19:43;17.00;;;14.00;;
13975;SDS011;7062;49.792;9.946;2024-03-22T01:22:08;16.90;;;13.30;;
13975;SDS011;7062;49.792;9.946;2024-03-22T01:24:34;16.10;;;13.37;;
13975;SDS011;7062;49.792;9.946;2024-03-22T01:27:00;21.10;;;14.70;;
13975;SDS011;7062;49.792;9.946;2024-03-22T01:29:25;21.90;;;14.27;;
13975;SDS011;7062;49.792;9.946;2024-03-22T01:31:55;17.63;;;13.07;;
13975;SDS011;7062;49.792;9.946;2024-03-22T01:34:21;17.30;;;13.63;;
13975;SDS011;7062;49.792;9.946;2024-03-22T01:36:46;16.10;;;13.67;;
13975;SDS011;7062;49.792;9.946;2024-03-22T01:39:12;17.30;;;14.23;;
13975;SDS011;7062;49.792;9.946;2024-03-22T01:41:39;18.33;;;13.40;;
13975;SDS011;7062;49.792;9.946;2024-03-22T01:44:05;15.47;;;12.93;;
13975;SDS011;7062;49.792;9.946;2024-03-22T01:46:30;18.07;;;14.27;;
13975;SDS011;7062;49.792;9.946;2024-03-22T01:48:56;16.97;;;13.40;;
13975;SDS011;7062;49.792;9.946;2024-03-22T01:51:22;17.13;;;14.63;;
13975;SDS011;7062;49.792;9.946;2024-03-22T01:53:48;18.10;;;14.03;;
13975;SDS011;7062;49.792;9.946;2024-03-22T01:56:13;16.37;;;13.53;;
13975;SDS011;7062;49.792;9.946;2024-03-22T01:58:40;14.83;;;12.43;;
13975;SDS011;7062;49.792;9.946;2024-03-22T02:01:06;16.70;;;14.90;;
13975;SDS011;7062;49.792;9.946;2024-03-22T02:03:32;15.57;;;12.83;;
13975;SDS011;7062;49.792;9.946;2024-03-22T02:05:57;15.33;;;13.40;;
13975;SDS011;7062;49.792;9.946;2024-03-22T02:08:23;17.30;;;12.90;;
13975;SDS011;7062;49.792;9.946;2024-03-22T02:10:48;16.70;;;13.63;;
13975;SDS011;7062;49.792;9.946;2024-03-22T02:13:14;18.63;;;13.67;;
13975;SDS011;7062;49.792;9.946;2024-03-22T02:15:40;17.73;;;14.10;;
13975;SDS011;7062;49.792;9.946;2024-03-22T02:18:05;16.77;;;13.20;;
13975;SDS011;7062;49.792;9.946;2024-03-22T02:20:31;18.27;;;13.53;;
13975;SDS011;7062;49.792;9.946;2024-03-22T02:22:56;18.43;;;14.47;;
13975;SDS011;7062;49.792;9.946;2024-03-22T02:25:22;17.10;;;12.97;;
13975;SDS011;7062;49.792;9.946;2024-03-22T02:27:48;15.70;;;12.83;;
13975;SDS011;7062;49.792;9.946;2024-03-22T02:30:15;15.83;;;14.13;;
13975;SDS011;7062;49.792;9.946;2024-03-22T02:32:44;14.77;;;13.10;;
13975;SDS011;7062;49.792;9.946;2024-03-22T02:35:10;18.43;;;14.80;;
13975;SDS011;7062;49.792;9.946;2024-03-22T02:37:36;17.50;;;14.57;;
13975;SDS011;7062;49.792;9.946;2024-03-22T02:40:01;18.27;;;14.80;;
13975;SDS011;7062;49.792;9.946;2024-03-22T02:42:27;20.73;;;15.43;;
13975;SDS011;7062;49.792;9.946;2024-03-22T02:44:53;21.13;;;14.07;;
13975;SDS011;7062;49.792;9.946;2024-03-22T02:47:18;17.77;;;14.50;;
13975;SDS011;7062;49.792;9.946;2024-03-22T02:49:44;20.53;;;15.37;;
13975;SDS011;7062;49.792;9.946;2024-03-22T02:52:10;16.47;;;13.57;;
13975;SDS011;7062;49.792;9.946;2024-03-22T02:54:35;17.50;;;13.73;;
13975;SDS011;7062;49.792;9.946;2024-03-22T02:57:01;19.70;;;14.23;;
13975;SDS011;7062;49.792;9.946;2024-03-22T02:59:27;16.57;;;13.83;;
13975;SDS011;7062;49.792;9.946;2024-03-22T03:01:53;21.47;;;15.03;;
13975;SDS011;7062;49.792;9.946;2024-03-22T03:04:19;16.93;;;14.30;;
13975;SDS011;7062;49.792;9.946;2024-03-22T03:06:45;16.67;;;13.73;;
13975;SDS011;7062;49.792;9.946;2024-03-22T03:09:11;18.87;;;14.87;;
13975;SDS011;7062;49.792;9.946;2024-03-22T03:11:40;17.93;;;13.30;;
13975;SDS011;7062;49.792;9.946;2024-03-22T03:14:06;18.00;;;13.80;;
13975;SDS011;7062;49.792;9.946;2024-03-22T03:16:32;18.70;;;13.10;;
13975;SDS011;7062;49.792;9.946;2024-03-22T03:18:57;18.33;;;15.23;;
13975;SDS011;7062;49.792;9.946;2024-03-22T03:21:23;22.93;;;14.70;;
13975;SDS011;7062;49.792;9.946;2024-03-22T03:23:49;17.00;;;13.93;;
13975;SDS011;7062;49.792;9.946;2024-03-22T03:26:14;20.57;;;15.20;;
13975;SDS011;7062;49.792;9.946;2024-03-22T03:28:40;18.33;;;14.63;;
13975;SDS011;7062;49.792;9.946;2024-03-22T03:31:06;17.50;;;14.47;;
13975;SDS011;7062;49.792;9.946;2024-03-22T03:33:32;20.20;;;15.90;;
13975;SDS011;7062;49.792;9.946;2024-03-22T03:35:58;19.23;;;14.30;;
13975;SDS011;7062;49.792;9.946;2024-03-22T03:38:23;22.17;;;14.80;;
13975;SDS011;7062;49.792;9.946;2024-03-22T03:40:49;18.70;;;14.53;;
13975;SDS011;7062;49.792;9.946;2024-03-22T03:43:14;19.00;;;14.23;;
13975;SDS011;7062;49.792;9.946;2024-03-22T03:45:40;18.63;;;14.03;;
13975;SDS011;7062;49.792;9.946;2024-03-22T03:48:06;20.67;;;15.17;;
13975;SDS011;7062;49.792;9.946;2024-03-22T03:50:31;18.17;;;15.27;;
13975;SDS011;7062;49.792;9.946;2024-03-22T03:52:57;17.83;;;14.70;;
13975;SDS011;7062;49.792;9.946;2024-03-22T03:55:23;18.40;;;13.87;;
13975;SDS011;7062;49.792;9.946;2024-03-22T03:57:52;21.73;;;15.50;;
13975;SDS011;7062;49.792;9.946;2024-03-22T04:00:19;17.07;;;14.10;;
13975;SDS011;7062;49.792;9.946;2024-03-22T04:02:44;18.27;;;13.37;;
13975;SDS011;7062;49.792;9.946;2024-03-22T04:05:10;18.47;;;15.13;;
13975;SDS011;7062;49.792;9.946;2024-03-22T04:07:36;18.60;;;14.63;;
13975;SDS011;7062;49.792;9.946;2024-03-22T04:10:01;22.93;;;14.97;;
13975;SDS011;7062;49.792;9.946;2024-03-22T04:12:27;18.23;;;14.50;;
13975;SDS011;7062;49.792;9.946;2024-03-22T04:14:54;19.33;;;13.93;;
13975;SDS011;7062;49.792;9.946;2024-03-22T04:17:19;18.60;;;13.40;;
13975;SDS011;7062;49.792;9.946;2024-03-22T04:19:45;19.83;;;15.70;;
13975;SDS011;7062;49.792;9.946;2024-03-22T04:22:11;19.27;;;14.97;;
13975;SDS011;7062;49.792;9.946;2024-03-22T04:24:37;19.93;;;14.63;;
13975;SDS011;7062;49.792;9.946;2024-03-22T04:27:02;17.40;;;14.23;;
13975;SDS011;7062;49.792;9.946;2024-03-22T04:29:28;17.27;;;13.60;;
13975;SDS011;7062;49.792;9.946;2024-03-22T04:31:54;19.70;;;14.93;;
13975;SDS011;7062;49.792;9.946;2024-03-22T04:34:20;19.97;;;15.20;;
13975;SDS011;7062;49.792;9.946;2024-03-22T04:36:46;20.37;;;15.20;;
13975;SDS011;7062;49.792;9.946;2024-03-22T04:39:11;18.97;;;12.27;;
13975;SDS011;7062;49.792;9.946;2024-03-22T04:41:37;21.20;;;13.80;;
13975;SDS011;7062;49.792;9.946;2024-03-22T04:44:03;15.60;;;12.70;;
13975;SDS011;7062;49.792;9.946;2024-03-22T04:46:28;16.70;;;13.77;;
13975;SDS011;7062;49.792;9.946;2024-03-22T04:48:54;19.90;;;14.30;;
13975;SDS011;7062;49.792;9.946;2024-03-22T04:51:20;20.23;;;13.93;;
13975;SDS011;7062;49.792;9.946;2024-03-22T04:53:45;20.63;;;13.97;;
13975;SDS011;7062;49.792;9.946;2024-03-22T04:56:11;20.50;;;15.07;;
13975;SDS011;7062;49.792;9.946;2024-03-22T04:58:36;18.07;;;12.60;;
13975;SDS011;7062;49.792;9.946;2024-03-22T05:01:02;15.47;;;13.23;;
13975;SDS011;7062;49.792;9.946;2024-03-22T05:03:28;17.43;;;13.60;;
13975;SDS011;7062;49.792;9.946;2024-03-22T05:05:54;19.67;;;14.43;;
13975;SDS011;7062;49.792;9.946;2024-03-22T05:08:21;20.20;;;14.57;;
13975;SDS011;7062;49.792;9.946;2024-03-22T05:10:47;18.00;;;14.30;;
13975;SDS011;7062;49.792;9.946;2024-03-22T05:13:12;18.40;;;13.97;;
13975;SDS011;7062;49.792;9.946;2024-03-22T05:15:38;21.10;;;14.57;;
13975;SDS011;7062;49.792;9.946;2024-03-22T05:18:03;17.63;;;14.10;;
13975;SDS011;7062;49.792;9.946;2024-03-22T05:20:29;23.50;;;15.23;;
13975;SDS011;7062;49.792;9.946;2024-03-22T05:22:55;20.23;;;14.70;;
13975;SDS011;7062;49.792;9.946;2024-03-22T05:25:21;22.03;;;15.30;;
13975;SDS011;7062;49.792;9.946;2024-03-22T05:27:46;19.97;;;14.77;;
13975;SDS011;7062;49.792;9.946;2024-03-22T05:30:12;20.30;;;14.53;;
13975;SDS011;7062;49.792;9.946;2024-03-22T05:32:39;20.13;;;14.50;;
13975;SDS011;7062;49.792;9.946;2024-03-22T05:35:05;20.00;;;13.17;;
13975;SDS011;7062;49.792;9.946;2024-03-22T05:37:31;17.63;;;14.83;;
13975;SDS011;7062;49.792;9.946;2024-03-22T05:39:58;19.20;;;13.63;;
13975;SDS011;7062;49.792;9.946;2024-03-22T05:42:25;18.40;;;14.60;;
13975;SDS011;7062;49.792;9.946;2024-03-22T05:44:51;23.53;;;14.93;;
13975;SDS011;7062;49.792;9.946;2024-03-22T05:47:17;19.43;;;14.40;;
13975;SDS011;7062;49.792;9.946;2024-03-22T05:49:43;20.47;;;15.27;;
13975;SDS011;7062;49.792;9.946;2024-03-22T05:52:09;20.50;;;15.40;;
13975;SDS011;7062;49.792;9.946;2024-03-22T05:54:35;17.83;;;14.10;;
13975;SDS011;7062;49.792;9.946;2024-03-22T05:57:00;21.90;;;13.80;;
13975;SDS011;7062;49.792;9.946;2024-03-22T05:59:27;15.83;;;13.13;;
13975;SDS011;7062;49.792;9.946;2024-03-22T06:01:52;18.23;;;13.73;;
13975;SDS011;7062;49.792;9.946;2024-03-22T06:04:18;23.00;;;15.10;;
13975;SDS011;7062;49.792;9.946;2024-03-22T06:06:44;18.70;;;14.60;;
13975;SDS011;7062;49.792;9.946;2024-03-22T06:09:09;21.87;;;15.30;;
13975;SDS011;7062;49.792;9.946;2024-03-22T06:11:36;18.93;;;15.67;;
13975;SDS011;7062;49.792;9.946;2024-03-22T06:14:02;22.40;;;15.23;;
13975;SDS011;7062;49.792;9.946;2024-03-22T06:16:28;20.37;;;14.33;;
13975;SDS011;7062;49.792;9.946;2024-03-22T06:18:53;17.77;;;14.50;;
13975;SDS011;7062;49.792;9.946;2024-03-22T06:21:19;20.57;;;15.73;;
13975;SDS011;7062;49.792;9.946;2024-03-22T06:23:49;20.47;;;14.93;;
13975;SDS011;7062;49.792;9.946;2024-03-22T06:26:16;21.80;;;14.37;;
13975;SDS011;7062;49.792;9.946;2024-03-22T06:28:41;16.63;;;14.83;;
13975;SDS011;7062;49.792;9.946;2024-03-22T06:31:07;16.20;;;12.80;;
13975;SDS011;7062;49.792;9.946;2024-03-22T06:33:33;22.63;;;17.47;;
13975;SDS011;7062;49.792;9.946;2024-03-22T06:35:58;25.67;;;18.20;;
13975;SDS011;7062;49.792;9.946;2024-03-22T06:38:24;18.57;;;13.97;;
13975;SDS011;7062;49.792;9.946;2024-03-22T06:40:50;19.63;;;15.13;;
13975;SDS011;7062;49.792;9.946;2024-03-22T06:43:16;20.07;;;14.57;;
13975;SDS011;7062;49.792;9.946;2024-03-22T06:45:41;21.30;;;16.07;;
13975;SDS011;7062;49.792;9.946;2024-03-22T06:48:07;17.67;;;14.97;;
13975;SDS011;7062;49.792;9.946;2024-03-22T06:50:32;19.97;;;14.40;;
13975;SDS011;7062;49.792;9.946;2024-03-22T06:52:58;22.90;;;15.40;;
13975;SDS011;7062;49.792;9.946;2024-03-22T06:55:24;22.03;;;15.90;;
13975;SDS011;7062;49.792;9.946;2024-03-22T06:57:50;21.57;;;15.33;;
13975;SDS011;7062;49.792;9.946;2024-03-22T07:00:17;18.87;;;13.10;;
13975;SDS011;7062;49.792;9.946;2024-03-22T07:02:43;24.07;;;15.87;;
13975;SDS011;7062;49.792;9.946;2024-03-22T07:05:09;25.47;;;16.07;;
13975;SDS011;7062;49.792;9.946;2024-03-22T07:07:35;21.07;;;16.17;;
13975;SDS011;7062;49.792;9.946;2024-03-22T07:10:02;18.70;;;15.00;;
13975;SDS011;7062;49.792;9.946;2024-03-22T07:12:28;19.93;;;15.83;;
13975;SDS011;7062;49.792;9.946;2024-03-22T07:14:54;21.27;;;14.80;;
13975;SDS011;7062;49.792;9.946;2024-03-22T07:17:21;20.60;;;16.00;;
13975;SDS011;7062;49.792;9.946;2024-03-22T07:19:52;21.67;;;15.30;;
13975;SDS011;7062;49.792;9.946;2024-03-22T07:22:18;17.80;;;14.87;;
13975;SDS011;7062;49.792;9.946;2024-03-22T07:24:44;15.97;;;14.03;;
13975;SDS011;7062;49.792;9.946;2024-03-22T07:27:10;21.03;;;14.50;;
13975;SDS011;7062;49.792;9.946;2024-03-22T07:29:36;22.73;;;15.43;;
13975;SDS011;7062;49.792;9.946;2024-03-22T07:32:02;20.97;;;15.83;;
13975;SDS011;7062;49.792;9.946;2024-03-22T07:34:28;17.67;;;14.33;;
13975;SDS011;7062;49.792;9.946;2024-03-22T07:36:54;19.40;;;14.23;;
13975;SDS011;7062;49.792;9.946;2024-03-22T07:39:20;20.17;;;15.50;;
13975;SDS011;7062;49.792;9.946;2024-03-22T07:41:46;18.70;;;15.73;;
13975;SDS011;7062;49.792;9.946;2024-03-22T07:44:11;18.43;;;15.10;;
13975;SDS011;7062;49.792;9.946;2024-03-22T07:46:37;28.77;;;14.27;;
13975;SDS011;7062;49.792;9.946;2024-03-22T07:49:03;21.70;;;15.40;;
13975;SDS011;7062;49.792;9.946;2024-03-22T07:51:29;18.77;;;15.63;;
13975;SDS011;7062;49.792;9.946;2024-03-22T07:53:55;20.03;;;15.37;;
13975;SDS011;7062;49.792;9.946;2024-03-22T07:56:21;22.90;;;14.07;;
13975;SDS011;7062;49.792;9.946;2024-03-22T07:58:46;18.33;;;14.50;;
13975;SDS011;7062;49.792;9.946;2024-03-22T08:01:12;18.77;;;15.20;;
13975;SDS011;7062;49.792;9.946;2024-03-22T08:03:38;21.80;;;14.97;;
13975;SDS011;7062;49.792;9.946;2024-03-22T08:06:03;20.77;;;14.37;;
13975;SDS011;7062;49.792;9.946;2024-03-22T08:08:29;18.37;;;14.27;;
13975;SDS011;7062;49.792;9.946;2024-03-22T08:10:55;15.73;;;14.13;;
13975;SDS011;7062;49.792;9.946;2024-03-22T08:13:21;18.40;;;14.30;;
13975;SDS011;7062;49.792;9.946;2024-03-22T08:15:46;17.90;;;14.37;;
13975;SDS011;7062;49.792;9.946;2024-03-22T08:18:12;20.33;;;15.97;;
13975;SDS011;7062;49.792;9.946;2024-03-22T08:20:38;18.67;;;15.00;;
13975;SDS011;7062;49.792;9.946;2024-03-22T08:23:04;17.47;;;14.23;;
13975;SDS011;7062;49.792;9.946;2024-03-22T08:25:30;19.90;;;15.10;;
13975;SDS011;7062;49.792;9.946;2024-03-22T08:27:56;16.87;;;14.07;;
13975;SDS011;7062;49.792;9.946;2024-03-22T08:30:23;16.27;;;13.83;;
13975;SDS011;7062;49.792;9.946;2024-03-22T08:32:49;21.43;;;15.33;;
13975;SDS011;7062;49.792;9.946;2024-03-22T08:35:14;17.13;;;14.33;;
13975;SDS011;7062;49.792;9.946;2024-03-22T08:37:40;16.27;;;14.27;;
13975;SDS011;7062;49.792;9.946;2024-03-22T08:40:06;16.20;;;13.20;;
13975;SDS011;7062;49.792;9.946;2024-03-22T08:42:32;18.43;;;13.40;;
13975;SDS011;7062;49.792;9.946;2024-03-22T08:44:58;15.57;;;13.30;;
13975;SDS011;7062;49.792;9.946;2024-03-22T08:47:23;14.23;;;11.87;;
13975;SDS011;7062;49.792;9.946;2024-03-22T08:49:49;17.77;;;14.10;;
13975;SDS011;7062;49.792;9.946;2024-03-22T08:52:15;15.03;;;11.23;;
13975;SDS011;7062;49.792;9.946;2024-03-22T08:54:40;12.53;;;10.67;;
13975;SDS011;7062;49.792;9.946;2024-03-22T08:57:06;11.40;;;9.80;;
13975;SDS011;7062;49.792;9.946;2024-03-22T08:59:32;12.27;;;10.73;;
13975;SDS011;7062;49.792;9.946;2024-03-22T09:01:57;10.87;;;9.60;;
13975;SDS011;7062;49.792;9.946;2024-03-22T09:04:24;15.03;;;11.17;;
13975;SDS011;7062;49.792;9.946;2024-03-22T09:06:50;9.43;;;8.43;;
13975;SDS011;7062;49.792;9.946;2024-03-22T09:09:15;10.83;;;7.50;;
13975;SDS011;7062;49.792;9.946;2024-03-22T09:11:42;12.10;;;7.77;;
13975;SDS011;7062;49.792;9.946;2024-03-22T09:14:07;9.97;;;7.17;;
13975;SDS011;7062;49.792;9.946;2024-03-22T09:16:33;9.03;;;7.77;;
13975;SDS011;7062;49.792;9.946;2024-03-22T09:18:59;9.03;;;7.13;;
13975;SDS011;7062;49.792;9.946;2024-03-22T09:21:25;9.43;;;5.63;;
13975;SDS011;7062;49.792;9.946;2024-03-22T09:23:50;5.80;;;3.50;;
13975;SDS011;7062;49.792;9.946;2024-03-22T09:26:16;5.10;;;3.53;;
13975;SDS011;7062;49.792;9.946;2024-03-22T09:28:41;5.07;;;3.77;;
13975;SDS011;7062;49.792;9.946;2024-03-22T09:31:07;5.10;;;3.33;;
13975;SDS011;7062;49.792;9.946;2024-03-22T09:33:33;3.27;;;2.83;;
13975;SDS011;7062;49.792;9.946;2024-03-22T09:35:59;3.43;;;2.70;;
13975;SDS011;7062;49.792;9.946;2024-03-22T09:38:25;3.07;;;2.60;;
13975;SDS011;7062;49.792;9.946;2024-03-22T09:40:50;3.37;;;2.53;;
13975;SDS011;7062;49.792;9.946;2024-03-22T09:43:20;2.90;;;2.33;;
13975;SDS011;7062;49.792;9.946;2024-03-22T09:45:49;4.80;;;2.90;;
13975;SDS011;7062;49.792;9.946;2024-03-22T09:48:18;5.63;;;2.70;;
13975;SDS011;7062;49.792;9.946;2024-03-22T09:50:47;2.90;;;2.37;;
13975;SDS011;7062;49.792;9.946;2024-03-22T09:53:17;5.53;;;2.70;;
13975;SDS011;7062;49.792;9.946;2024-03-22T09:55:48;2.50;;;2.03;;
13975;SDS011;7062;49.792;9.946;2024-03-22T09:58:14;3.00;;;1.87;;
13975;SDS011;7062;49.792;9.946;2024-03-22T10:00:44;4.50;;;2.40;;
13975;SDS011;7062;49.792;9.946;2024-03-22T10:03:09;4.00;;;2.03;;
13975;SDS011;7062;49.792;9.946;2024-03-22T10:05:36;3.43;;;1.83;;
13975;SDS011;7062;49.792;9.946;2024-03-22T10:08:05;2.40;;;1.67;;
13975;SDS011;7062;49.792;9.946;2024-03-22T10:10:31;2.77;;;1.80;;
13975;SDS011;7062;49.792;9.946;2024-03-22T10:13:03;3.87;;;2.00;;
13975;SDS011;7062;49.792;9.946;2024-03-22T10:15:32;2.47;;;1.30;;
13975;SDS011;7062;49.792;9.946;2024-03-22T10:17:57;1.87;;;1.50;;
13975;SDS011;7062;49.792;9.946;2024-03-22T10:20:23;2.67;;;1.20;;
13975;SDS011;7062;49.792;9.946;2024-03-22T10:22:54;2.07;;;1.20;;
13975;SDS011;7062;49.792;9.946;2024-03-22T10:25:22;3.70;;;1.40;;
13975;SDS011;7062;49.792;9.946;2024-03-22T10:27:48;1.93;;;1.50;;
13975;SDS011;7062;49.792;9.946;2024-03-22T10:30:15;2.97;;;1.77;;
13975;SDS011;7062;49.792;9.946;2024-03-22T10:32:44;3.50;;;1.67;;
13975;SDS011;7062;49.792;9.946;2024-03-22T10:35:13;2.07;;;1.87;;
13975;SDS011;7062;49.792;9.946;2024-03-22T10:37:39;2.00;;;1.70;;
13975;SDS011;7062;49.792;9.946;2024-03-22T10:40:05;2.57;;;1.60;;
13975;SDS011;7062;49.792;9.946;2024-03-22T10:42:38;3.13;;;1.73;;
13975;SDS011;7062;49.792;9.946;2024-03-22T10:45:06;2.47;;;2.03;;
13975;SDS011;7062;49.792;9.946;2024-03-22T10:47:33;2.30;;;1.60;;
13975;SDS011;7062;49.792;9.946;2024-03-22T10:50:20;2.53;;;1.50;;
13975;SDS011;7062;49.792;9.946;2024-03-22T10:52:47;3.20;;;1.77;;
13975;SDS011;7062;49.792;9.946;2024-03-22T10:55:22;2.83;;;2.53;;
13975;SDS011;7062;49.792;9.946;2024-03-22T10:57:49;3.93;;;2.00;;
13975;SDS011;7062;49.792;9.946;2024-03-22T11:00:15;2.90;;;2.30;;
13975;SDS011;7062;49.792;9.946;2024-03-22T11:02:52;4.63;;;2.00;;
13975;SDS011;7062;49.792;9.946;2024-03-22T11:05:18;3.37;;;2.13;;
13975;SDS011;7062;49.792;9.946;2024-03-22T11:07:44;2.43;;;1.50;;
13975;SDS011;7062;49.792;9.946;2024-03-22T11:10:13;6.47;;;1.27;;
13975;SDS011;7062;49.792;9.946;2024-03-22T11:12:41;1.47;;;1.37;;
13975;SDS011;7062;49.792;9.946;2024-03-22T11:15:08;2.07;;;1.20;;
13975;SDS011;7062;49.792;9.946;2024-03-22T11:17:35;2.53;;;0.90;;
13975;SDS011;7062;49.792;9.946;2024-03-22T11:20:01;1.60;;;1.20;;
13975;SDS011;7062;49.792;9.946;2024-03-22T11:22:27;1.77;;;1.20;;
13975;SDS011;7062;49.792;9.946;2024-03-22T11:24:53;0.67;;;0.60;;
13975;SDS011;7062;49.792;9.946;2024-03-22T11:27:18;0.60;;;0.57;;
13975;SDS011;7062;49.792;9.946;2024-03-22T11:29:44;1.43;;;0.60;;
13975;SDS011;7062;49.792;9.946;2024-03-22T11:32:11;0.60;;;0.50;;
13975;SDS011;7062;49.792;9.946;2024-03-22T11:34:37;2.57;;;1.17;;
13975;SDS011;7062;49.792;9.946;2024-03-22T11:37:04;0.67;;;0.43;;
13975;SDS011;7062;49.792;9.946;2024-03-22T11:39:32;1.20;;;0.60;;
13975;SDS011;7062;49.792;9.946;2024-03-22T11:41:59;0.40;;;0.40;;
13975;SDS011;7062;49.792;9.946;2024-03-22T11:44:26;0.80;;;0.60;;
13975;SDS011;7062;49.792;9.946;2024-03-22T11:46:53;0.53;;;0.43;;
13975;SDS011;7062;49.792;9.946;2024-03-22T11:49:18;0.73;;;0.40;;
13975;SDS011;7062;49.792;9.946;2024-03-22T11:51:45;0.77;;;0.40;;
13975;SDS011;7062;49.792;9.946;2024-03-22T11:54:10;0.93;;;0.60;;
13975;SDS011;7062;49.792;9.946;2024-03-22T11:56:36;1.60;;;0.50;;
13975;SDS011;7062;49.792;9.946;2024-03-22T11:59:01;0.30;;;0.30;;
13975;SDS011;7062;49.792;9.946;2024-03-22T12:01:30;1.73;;;0.40;;
13975;SDS011;7062;49.792;9.946;2024-03-22T12:03:56;0.63;;;0.40;;
13975;SDS011;7062;49.792;9.946;2024-03-22T12:06:21;2.00;;;0.53;;
13975;SDS011;7062;49.792;9.946;2024-03-22T12:08:47;1.93;;;0.40;;
13975;SDS011;7062;49.792;9.946;2024-03-22T12:11:13;1.20;;;0.40;;
13975;SDS011;7062;49.792;9.946;2024-03-22T12:13:39;1.23;;;0.50;;
13975;SDS011;7062;49.792;9.946;2024-03-22T12:16:05;0.90;;;0.60;;
13975;SDS011;7062;49.792;9.946;2024-03-22T12:18:32;1.00;;;0.50;;
13975;SDS011;7062;49.792;9.946;2024-03-22T12:20:58;2.87;;;0.60;;
13975;SDS011;7062;49.792;9.946;2024-03-22T12:23:24;1.83;;;1.00;;
13975;SDS011;7062;49.792;9.946;2024-03-22T12:25:50;0.50;;;0.50;;
13975;SDS011;7062;49.792;9.946;2024-03-22T12:28:16;4.00;;;0.97;;
13975;SDS011;7062;49.792;9.946;2024-03-22T12:30:42;0.40;;;0.40;;
13975;SDS011;7062;49.792;9.946;2024-03-22T12:33:08;1.43;;;0.70;;
13975;SDS011;7062;49.792;9.946;2024-03-22T12:35:38;0.97;;;0.57;;
13975;SDS011;7062;49.792;9.946;2024-03-22T12:38:05;2.23;;;0.63;;
13975;SDS011;7062;49.792;9.946;2024-03-22T12:40:31;1.23;;;0.60;;
13975;SDS011;7062;49.792;9.946;2024-03-22T12:42:59;0.43;;;0.40;;
13975;SDS011;7062;49.792;9.946;2024-03-22T12:45:25;0.60;;;0.60;;
13975;SDS011;7062;49.792;9.946;2024-03-22T12:47:51;2.07;;;1.00;;
13975;SDS011;7062;49.792;9.946;2024-03-22T12:50:16;3.47;;;1.63;;
13975;SDS011;7062;49.792;9.946;2024-03-22T12:52:42;2.43;;;1.20;;
13975;SDS011;7062;49.792;9.946;2024-03-22T12:55:09;0.93;;;0.80;;
13975;SDS011;7062;49.792;9.946;2024-03-22T12:57:35;1.00;;;0.77;;
13975;SDS011;7062;49.792;9.946;2024-03-22T13:00:01;1.77;;;1.33;;
13975;SDS011;7062;49.792;9.946;2024-03-22T13:02:28;1.50;;;1.40;;
13975;SDS011;7062;49.792;9.946;2024-03-22T13:04:53;2.17;;;1.43;;
13975;SDS011;7062;49.792;9.946;2024-03-22T13:07:19;4.20;;;1.53;;
13975;SDS011;7062;49.792;9.946;2024-03-22T13:09:45;2.40;;;1.53;;
13975;SDS011;7062;49.792;9.946;2024-03-22T13:12:11;2.00;;;1.70;;
13975;SDS011;7062;49.792;9.946;2024-03-22T13:14:36;5.37;;;1.80;;
13975;SDS011;7062;49.792;9.946;2024-03-22T13:17:02;2.43;;;1.47;;
13975;SDS011;7062;49.792;9.946;2024-03-22T13:19:28;3.87;;;2.43;;
13975;SDS011;7062;49.792;9.946;2024-03-22T13:21:53;3.83;;;2.00;;
13975;SDS011;7062;49.792;9.946;2024-03-22T13:24:19;4.57;;;2.00;;
13975;SDS011;7062;49.792;9.946;2024-03-22T13:26:44;3.20;;;2.10;;
13975;SDS011;7062;49.792;9.946;2024-03-22T13:29:10;2.40;;;2.07;;
13975;SDS011;7062;49.792;9.946;2024-03-22T13:31:39;4.20;;;2.40;;
13975;SDS011;7062;49.792;9.946;2024-03-22T13:34:05;2.50;;;1.77;;
13975;SDS011;7062;49.792;9.946;2024-03-22T13:36:30;3.63;;;2.63;;
13975;SDS011;7062;49.792;9.946;2024-03-22T13:38:58;3.03;;;2.53;;
13975;SDS011;7062;49.792;9.946;2024-03-22T13:41:24;3.73;;;2.87;;
13975;SDS011;7062;49.792;9.946;2024-03-22T13:43:49;3.43;;;2.60;;
13975;SDS011;7062;49.792;9.946;2024-03-22T13:46:15;4.67;;;2.87;;
13975;SDS011;7062;49.792;9.946;2024-03-22T13:48:42;3.50;;;2.67;;
13975;SDS011;7062;49.792;9.946;2024-03-22T13:51:08;3.80;;;2.60;;
13975;SDS011;7062;49.792;9.946;2024-03-22T13:53:34;4.77;;;2.20;;
13975;SDS011;7062;49.792;9.946;2024-03-22T13:56:01;5.20;;;3.33;;
13975;SDS011;7062;49.792;9.946;2024-03-22T13:58:27;4.47;;;2.97;;
13975;SDS011;7062;49.792;9.946;2024-03-22T14:00:53;5.67;;;3.00;;
13975;SDS011;7062;49.792;9.946;2024-03-22T14:03:19;3.67;;;2.63;;
13975;SDS011;7062;49.792;9.946;2024-03-22T14:05:45;4.23;;;2.50;;
13975;SDS011;7062;49.792;9.946;2024-03-22T14:08:10;2.93;;;2.53;;
13975;SDS011;7062;49.792;9.946;2024-03-22T14:10:36;2.10;;;1.60;;
13975;SDS011;7062;49.792;9.946;2024-03-22T14:13:03;3.93;;;1.60;;
13975;SDS011;7062;49.792;9.946;2024-03-22T14:15:29;1.90;;;1.20;;
13975;SDS011;7062;49.792;9.946;2024-03-22T14:17:57;2.07;;;1.67;;
13975;SDS011;7062;49.792;9.946;2024-03-22T14:20:23;1.77;;;1.40;;
13975;SDS011;7062;49.792;9.946;2024-03-22T14:22:50;1.33;;;1.10;;
13975;SDS011;7062;49.792;9.946;2024-03-22T14:25:16;1.93;;;1.00;;
13975;SDS011;7062;49.792;9.946;2024-03-22T14:27:42;2.33;;;0.90;;
13975;SDS011;7062;49.792;9.946;2024-03-22T14:30:11;2.17;;;1.07;;
13975;SDS011;7062;49.792;9.946;2024-03-22T14:32:38;4.47;;;1.50;;
13975;SDS011;7062;49.792;9.946;2024-03-22T14:35:04;2.03;;;1.07;;
13975;SDS011;7062;49.792;9.946;2024-03-22T14:37:31;3.10;;;1.20;;
13975;SDS011;7062;49.792;9.946;2024-03-22T14:39:57;1.73;;;1.00;;